createdAt,value
2023-04-20T00:01:10.971Z,14.64
2023-04-20T00:03:39.071Z,13.67
2023-04-20T00:06:07.891Z,13.79
2023-04-20T00:08:35.785Z,14.92
2023-04-20T00:11:03.724Z,15.80
2023-04-20T00:13:31.636Z,15.59
2023-04-20T00:15:59.628Z,14.44
2023-04-20T00:18:27.539Z,13.60
2023-04-20T00:20:55.543Z,14.14
2023-04-20T00:23:23.339Z,15.22
2023-04-20T00:25:51.784Z,15.68
2023-04-20T00:28:19.584Z,14.70
2023-04-20T00:30:47.455Z,13.72
2023-04-20T00:33:15.466Z,13.79
2023-04-20T00:35:43.289Z,14.93
2023-04-20T00:38:11.139Z,15.82
2023-04-20T00:40:39.086Z,15.42
2023-04-20T00:43:13.984Z,14.31
2023-04-20T00:45:41.802Z,13.60
2023-04-20T00:48:09.646Z,14.39
2023-04-20T00:50:38.865Z,15.50
2023-04-20T00:53:08.137Z,15.76
2023-04-20T00:55:37.303Z,14.69
2023-04-20T00:58:06.315Z,13.76
2023-04-20T01:00:34.771Z,13.95
2023-04-20T01:03:02.722Z,15.08
2023-04-20T01:05:31.053Z,15.86
2023-04-20T01:07:59.078Z,15.22
2023-04-20T01:10:26.885Z,14.14
2023-04-20T01:12:54.749Z,13.76
2023-04-20T01:15:22.618Z,14.76
2023-04-20T01:17:50.513Z,15.72
2023-04-20T01:20:20.447Z,15.66
2023-04-20T01:22:51.019Z,14.53
2023-04-20T01:25:18.978Z,13.62
2023-04-20T01:27:46.964Z,13.78
2023-04-20T01:30:15.034Z,14.95
2023-04-20T01:32:43.769Z,15.84
2023-04-20T01:35:12.095Z,15.70
2023-04-20T01:37:40.936Z,14.56
2023-04-20T01:40:10.531Z,13.66
2023-04-20T01:42:38.425Z,13.77
2023-04-20T01:45:07.065Z,14.94
2023-04-20T01:47:35.552Z,15.82
2023-04-20T01:50:03.803Z,15.28
2023-04-20T01:52:31.676Z,14.22
2023-04-20T01:54:59.525Z,13.73
2023-04-20T01:57:27.290Z,14.68
2023-04-20T01:59:55.094Z,15.72
2023-04-20T02:02:23.777Z,15.96
2023-04-20T02:04:53.385Z,14.88
2023-04-20T02:07:21.379Z,13.89
2023-04-20T02:09:49.347Z,13.65
2023-04-20T02:12:17.127Z,14.81
2023-04-20T02:14:45.060Z,15.79
2023-04-20T02:17:13.975Z,15.26
2023-04-20T02:19:41.821Z,14.17
2023-04-20T02:22:09.761Z,13.54
2023-04-20T02:24:37.557Z,14.40
2023-04-20T02:27:05.668Z,15.56
2023-04-20T02:29:33.570Z,15.85
2023-04-20T02:32:01.616Z,14.76
2023-04-20T02:34:29.377Z,13.77
2023-04-20T02:36:57.170Z,13.48
2023-04-20T02:39:25.045Z,14.62
2023-04-20T02:41:52.828Z,15.71
2023-04-20T02:44:20.676Z,15.90
2023-04-20T02:46:48.553Z,14.79
2023-04-20T02:49:16.782Z,13.82
2023-04-20T02:51:44.832Z,13.57
2023-04-20T02:54:12.715Z,14.70
2023-04-20T02:56:40.600Z,15.77
2023-04-20T02:59:08.443Z,15.53
2023-04-20T03:01:36.263Z,14.41
2023-04-20T03:04:04.783Z,13.55
2023-04-20T03:06:33.413Z,13.93
2023-04-20T03:09:01.545Z,15.20
2023-04-20T03:11:29.361Z,15.70
2023-04-20T03:13:57.125Z,14.69
2023-04-20T03:16:24.918Z,13.70
2023-04-20T03:18:52.739Z,13.52
2023-04-20T03:21:20.735Z,14.75
2023-04-20T03:23:49.280Z,15.77
2023-04-20T03:26:17.895Z,15.36
2023-04-20T03:28:45.869Z,14.22
2023-04-20T03:31:13.810Z,13.44
2023-04-20T03:33:41.643Z,13.99
2023-04-20T03:36:09.845Z,15.19
2023-04-20T03:38:37.713Z,15.60
2023-04-20T03:41:08.136Z,14.57
2023-04-20T03:43:36.148Z,13.60
2023-04-20T03:46:04.057Z,13.55
2023-04-20T03:48:33.133Z,14.72
2023-04-20T03:51:01.133Z,15.69
2023-04-20T03:53:29.234Z,15.28
2023-04-20T03:55:57.160Z,14.15
2023-04-20T03:58:25.000Z,13.39
2023-04-20T04:00:52.825Z,14.01
2023-04-20T04:03:20.776Z,15.21
2023-04-20T04:05:48.650Z,15.61
2023-04-20T04:08:16.585Z,14.58
2023-04-20T04:10:44.448Z,13.61
2023-04-20T04:13:12.219Z,13.52
2023-04-20T04:15:40.012Z,14.71
2023-04-20T04:18:07.962Z,15.69
2023-04-20T04:20:35.835Z,15.23
2023-04-20T04:23:03.775Z,14.13
2023-04-20T04:25:31.586Z,13.70
2023-04-20T04:27:59.842Z,14.76
2023-04-20T04:30:27.719Z,15.79
2023-04-20T04:32:55.823Z,15.60
2023-04-20T04:35:23.992Z,14.49
2023-04-20T04:37:52.805Z,13.63
2023-04-20T04:40:20.856Z,13.90
2023-04-20T04:42:48.712Z,15.13
2023-04-20T04:45:18.473Z,16.02
2023-04-20T04:47:46.465Z,15.62
2023-04-20T04:50:14.530Z,14.46
2023-04-20T04:52:42.437Z,13.59
2023-04-20T04:55:10.366Z,13.45
2023-04-20T04:57:38.759Z,14.61
2023-04-20T05:00:11.847Z,15.65
2023-04-20T05:02:40.152Z,15.85
2023-04-20T05:05:10.081Z,14.74
2023-04-20T05:07:38.602Z,13.78
2023-04-20T05:10:08.109Z,14.06
2023-04-20T05:12:36.238Z,15.20
2023-04-20T05:15:04.518Z,15.92
2023-04-20T05:17:32.532Z,15.25
2023-04-20T05:20:00.396Z,14.24
2023-04-20T05:22:28.247Z,13.88
2023-04-20T05:24:56.042Z,14.94
2023-04-20T05:27:23.884Z,15.90
2023-04-20T05:29:51.677Z,15.43
2023-04-20T05:32:19.590Z,14.39
2023-04-20T05:34:47.426Z,13.86
2023-04-20T05:37:16.181Z,14.83
2023-04-20T05:39:43.972Z,15.91
2023-04-20T05:42:11.848Z,16.16
2023-04-20T05:44:41.145Z,15.13
2023-04-20T05:47:09.073Z,14.20
2023-04-20T05:49:36.943Z,13.95
2023-04-20T05:52:05.063Z,15.09
2023-04-20T05:54:32.942Z,16.20
2023-04-20T05:57:00.709Z,16.48
2023-04-20T05:59:28.729Z,15.47
2023-04-20T06:01:56.585Z,14.61
2023-04-20T06:04:24.637Z,14.38
2023-04-20T06:06:52.673Z,15.51
2023-04-20T06:09:20.854Z,16.50
2023-04-20T06:11:48.683Z,15.95
2023-04-20T06:14:16.731Z,15.04
2023-04-20T06:16:44.919Z,14.39
2023-04-20T06:19:12.831Z,14.79
2023-04-20T06:21:41.303Z,16.07
2023-04-20T06:24:09.267Z,16.54
2023-04-20T06:26:37.128Z,15.64
2023-04-20T06:29:05.022Z,14.83
2023-04-20T06:31:33.061Z,14.27
2023-04-20T06:34:00.859Z,14.78
2023-04-20T06:36:28.744Z,16.10
2023-04-20T06:38:56.646Z,16.65
2023-04-20T06:41:24.356Z,15.82
2023-04-20T06:43:52.102Z,15.05
2023-04-20T06:46:20.088Z,14.56
2023-04-20T06:48:47.942Z,14.59
2023-04-20T06:51:15.870Z,15.87
2023-04-20T06:53:43.735Z,16.65
2023-04-20T06:56:12.229Z,15.99
2023-04-20T06:58:40.097Z,15.27
2023-04-20T07:01:07.925Z,14.79
2023-04-20T07:03:36.477Z,15.00
2023-04-20T07:06:07.073Z,16.40
2023-04-20T07:08:34.882Z,17.18
2023-04-20T07:11:02.668Z,16.56
2023-04-20T07:13:33.923Z,16.02
2023-04-20T07:16:02.243Z,15.75
2023-04-20T07:18:30.278Z,15.67
2023-04-20T07:20:58.198Z,15.68
2023-04-20T07:23:26.115Z,15.71
2023-04-20T07:25:54.308Z,15.77
2023-04-20T07:28:22.109Z,16.15
2023-04-20T07:30:49.931Z,17.78
2023-04-20T07:33:18.045Z,18.34
2023-04-20T07:35:45.852Z,17.94
2023-04-20T07:38:13.817Z,17.67
2023-04-20T07:40:41.576Z,17.50
2023-04-20T07:43:09.361Z,17.39
2023-04-20T07:45:41.333Z,17.43
2023-04-20T07:48:10.070Z,17.52
2023-04-20T07:50:38.497Z,17.64
2023-04-20T07:53:06.346Z,17.82
2023-04-20T07:55:34.198Z,18.00
2023-04-20T07:58:02.001Z,18.16
2023-04-20T08:00:30.049Z,18.38
2023-04-20T08:02:58.162Z,18.59
2023-04-20T08:05:26.241Z,18.83
2023-04-20T08:07:57.084Z,19.03
2023-04-20T08:10:25.595Z,19.02
2023-04-20T08:12:54.006Z,18.88
2023-04-20T08:15:22.044Z,18.81
2023-04-20T08:17:50.006Z,18.80
2023-04-20T08:20:18.290Z,18.80
2023-04-20T08:22:46.120Z,18.77
2023-04-20T08:25:13.947Z,18.69
2023-04-20T08:27:41.798Z,18.68
2023-04-20T08:30:10.624Z,18.75
2023-04-20T08:32:38.494Z,18.88
2023-04-20T08:35:07.426Z,18.93
2023-04-20T08:37:37.457Z,18.93
2023-04-20T08:40:06.211Z,18.84
2023-04-20T08:42:34.075Z,18.70
2023-04-20T08:45:02.251Z,18.58
2023-04-20T08:47:31.525Z,18.46
2023-04-20T08:50:00.232Z,18.42
2023-04-20T08:52:28.306Z,18.50
2023-04-20T08:54:57.770Z,18.64
2023-04-20T08:57:26.440Z,18.88
2023-04-20T08:59:54.556Z,19.12
2023-04-20T09:02:22.850Z,19.35
2023-04-20T09:05:05.073Z,19.53
2023-04-20T09:07:33.100Z,19.68
2023-04-20T09:10:01.356Z,19.82
2023-04-20T09:12:29.496Z,19.89
2023-04-20T09:14:57.352Z,19.88
2023-04-20T09:17:36.341Z,19.93
2023-04-20T09:20:05.444Z,19.89
2023-04-20T09:22:35.956Z,19.94
2023-04-20T09:25:17.735Z,20.03
2023-04-20T09:28:00.098Z,20.16
2023-04-20T09:30:48.959Z,20.36
2023-04-20T09:33:17.056Z,20.60
2023-04-20T09:35:45.776Z,20.76
2023-04-20T09:38:17.116Z,20.97
2023-04-20T09:40:45.216Z,21.23
2023-04-20T09:43:19.963Z,21.49
2023-04-20T09:45:49.304Z,21.72
2023-04-20T09:48:19.656Z,21.92
2023-04-20T09:50:51.043Z,22.10
2023-04-20T09:53:20.204Z,22.17
2023-04-20T09:55:50.376Z,22.20
2023-04-20T09:58:20.442Z,22.28
2023-04-20T10:00:48.809Z,22.35
2023-04-20T10:03:18.967Z,22.44
2023-04-20T10:05:47.191Z,22.40
2023-04-20T10:08:15.156Z,22.39
2023-04-20T10:10:52.360Z,22.29
2023-04-20T10:13:22.061Z,22.16
2023-04-20T10:15:50.055Z,21.94
2023-04-20T10:18:23.480Z,21.75
2023-04-20T10:20:52.678Z,21.54
2023-04-20T10:23:20.598Z,21.24
2023-04-20T10:26:00.609Z,21.03
2023-04-20T10:28:42.942Z,20.83
2023-04-20T10:31:16.794Z,20.61
2023-04-20T10:33:56.061Z,20.51
2023-04-20T10:36:27.602Z,20.19
2023-04-20T10:38:55.972Z,19.93
2023-04-20T10:41:24.600Z,19.83
2023-04-20T10:43:52.402Z,19.70
2023-04-20T10:46:23.021Z,19.69
2023-04-20T10:49:01.541Z,19.71
2023-04-20T10:51:29.953Z,19.74
2023-04-20T10:54:05.061Z,19.70
2023-04-20T10:56:44.973Z,19.84
2023-04-20T10:59:19.285Z,19.87
2023-04-20T11:01:48.744Z,20.01
2023-04-20T11:04:18.816Z,20.08
2023-04-20T11:06:50.832Z,20.20
2023-04-20T11:09:28.452Z,20.25
2023-04-20T11:12:07.419Z,20.15
2023-04-20T11:14:38.963Z,20.07
2023-04-20T11:17:06.971Z,20.00
2023-04-20T11:19:37.197Z,19.92
2023-04-20T11:22:06.415Z,19.84
2023-04-20T11:24:35.818Z,19.71
2023-04-20T11:27:04.982Z,19.60
2023-04-20T11:29:35.505Z,19.49
2023-04-20T11:32:09.187Z,19.47
2023-04-20T11:34:38.944Z,19.36
2023-04-20T11:37:13.137Z,19.41
2023-04-20T11:39:41.789Z,19.41
2023-04-20T11:42:09.856Z,19.29
2023-04-20T11:44:40.036Z,19.24
2023-04-20T11:47:07.965Z,19.26
2023-04-20T11:49:35.703Z,19.24
2023-04-20T11:52:03.660Z,19.21
2023-04-20T11:54:34.047Z,19.17
2023-04-20T11:57:02.598Z,19.11
2023-04-20T11:59:30.909Z,18.91
2023-04-20T12:02:01.311Z,18.82
2023-04-20T12:04:30.424Z,18.68
2023-04-20T12:07:02.810Z,18.61
2023-04-20T12:09:30.766Z,18.50
2023-04-20T12:11:59.151Z,18.47
2023-04-20T12:14:27.238Z,18.41
2023-04-20T12:16:56.741Z,18.37
2023-04-20T12:19:25.971Z,18.31
2023-04-20T12:21:53.887Z,18.23
2023-04-20T12:24:22.399Z,18.19
2023-04-20T12:26:50.318Z,18.13
2023-04-20T12:29:18.560Z,18.04
2023-04-20T12:31:46.780Z,18.01
2023-04-20T12:34:14.660Z,18.02
2023-04-20T12:36:42.366Z,17.98
2023-04-20T12:39:11.858Z,17.97
2023-04-20T12:41:41.441Z,17.94
2023-04-20T12:44:11.444Z,17.89
2023-04-20T12:46:39.647Z,17.80
2023-04-20T12:49:07.612Z,17.82
2023-04-20T12:51:35.402Z,17.88
2023-04-20T12:54:03.517Z,17.97
2023-04-20T12:56:31.326Z,18.06
2023-04-20T12:58:59.345Z,18.13
2023-04-20T13:01:27.261Z,18.19
2023-04-20T13:03:56.264Z,18.28
2023-04-20T13:06:24.300Z,18.42
2023-04-20T13:08:52.206Z,18.60
2023-04-20T13:11:20.159Z,18.73
2023-04-20T13:13:47.881Z,18.89
2023-04-20T13:16:15.936Z,19.03
2023-04-20T13:18:43.972Z,19.09
2023-04-20T13:21:11.887Z,18.97
2023-04-20T13:23:40.172Z,19.03
2023-04-20T13:26:08.766Z,19.02
2023-04-20T13:28:37.793Z,19.00
2023-04-20T13:31:05.998Z,19.01
2023-04-20T13:33:34.394Z,19.02
2023-04-20T13:36:02.669Z,19.00
2023-04-20T13:38:30.650Z,18.99
2023-04-20T13:40:58.500Z,19.00
2023-04-20T13:43:26.482Z,19.00
2023-04-20T13:45:54.497Z,18.93
2023-04-20T13:48:22.551Z,18.91
2023-04-20T13:50:51.240Z,18.89
2023-04-20T13:53:19.093Z,18.88
2023-04-20T13:55:46.849Z,18.83
2023-04-20T13:58:14.776Z,18.86
2023-04-20T14:00:42.627Z,18.83
2023-04-20T14:03:10.800Z,18.79
2023-04-20T14:05:39.067Z,18.71
2023-04-20T14:08:07.434Z,18.67
2023-04-20T14:10:35.579Z,18.56
2023-04-20T14:13:03.963Z,18.46
2023-04-20T14:15:32.214Z,18.45
2023-04-20T14:18:00.597Z,18.43
2023-04-20T14:20:28.440Z,18.42
2023-04-20T14:22:56.393Z,18.39
2023-04-20T14:25:24.262Z,18.39
2023-04-20T14:27:52.231Z,18.34
2023-04-20T14:30:20.134Z,18.32
2023-04-20T14:32:59.016Z,18.27
2023-04-20T14:35:28.002Z,18.25
2023-04-20T14:37:55.962Z,18.24
2023-04-20T14:40:23.783Z,18.23
2023-04-20T14:42:51.700Z,18.23
2023-04-20T14:45:19.748Z,18.25
2023-04-20T14:47:47.576Z,18.26
2023-04-20T14:50:15.516Z,18.26
2023-04-20T14:52:43.244Z,18.27
2023-04-20T14:55:11.116Z,18.30
2023-04-20T14:57:38.914Z,18.27
2023-04-20T15:00:07.787Z,18.25
2023-04-20T15:02:35.839Z,18.20
2023-04-20T15:05:07.036Z,18.18
2023-04-20T15:07:39.952Z,18.18
2023-04-20T15:10:09.296Z,18.18
2023-04-20T15:12:37.093Z,18.17
2023-04-20T15:15:05.481Z,18.18
2023-04-20T15:17:33.278Z,18.21
2023-04-20T15:20:01.117Z,18.26
2023-04-20T15:22:28.971Z,18.33
2023-04-20T15:24:56.925Z,18.37
2023-04-20T15:27:24.770Z,18.38
2023-04-20T15:29:52.670Z,18.36
2023-04-20T15:32:20.549Z,18.34
2023-04-20T15:34:48.326Z,18.30
2023-04-20T15:37:16.162Z,18.24
2023-04-20T15:39:44.962Z,18.21
2023-04-20T15:42:13.003Z,18.17
2023-04-20T15:44:41.571Z,18.12
2023-04-20T15:47:09.467Z,18.08
2023-04-20T15:49:40.678Z,18.06
2023-04-20T15:52:08.698Z,18.05
2023-04-20T15:54:37.694Z,18.02
2023-04-20T15:57:05.527Z,18.01
2023-04-20T15:59:33.474Z,18.01
2023-04-20T16:02:01.425Z,18.00
2023-04-20T16:04:29.339Z,18.00
2023-04-20T16:06:57.203Z,18.00
2023-04-20T16:09:25.226Z,18.01
2023-04-20T16:11:53.266Z,18.00
2023-04-20T16:14:21.384Z,17.98
2023-04-20T16:16:49.328Z,17.94
2023-04-20T16:19:17.148Z,17.91
2023-04-20T16:21:44.950Z,17.86
2023-04-20T16:24:12.859Z,17.80
2023-04-20T16:26:41.415Z,17.74
2023-04-20T16:29:09.957Z,17.67
2023-04-20T16:31:38.089Z,17.60
2023-04-20T16:34:06.535Z,17.50
2023-04-20T16:36:35.299Z,17.39
2023-04-20T16:39:05.953Z,17.22
2023-04-20T16:41:33.943Z,17.17
2023-04-20T16:44:01.859Z,18.29
2023-04-20T16:46:29.877Z,18.72
2023-04-20T16:48:58.091Z,17.97
2023-04-20T16:51:26.131Z,17.34
2023-04-20T16:53:55.335Z,16.89
2023-04-20T16:56:23.311Z,17.13
2023-04-20T16:58:51.144Z,18.46
2023-04-20T17:01:19.207Z,19.01
2023-04-20T17:03:47.898Z,18.21
2023-04-20T17:06:15.891Z,17.47
2023-04-20T17:08:43.734Z,16.97
2023-04-20T17:11:11.642Z,16.99
2023-04-20T17:13:39.571Z,18.26
2023-04-20T17:16:07.436Z,19.39
2023-04-20T17:18:35.437Z,19.78
2023-04-20T17:21:04.034Z,18.85
2023-04-20T17:23:34.288Z,17.97
2023-04-20T17:26:03.071Z,17.38
2023-04-20T17:28:30.948Z,17.43
2023-04-20T17:31:02.251Z,18.69
2023-04-20T17:33:30.661Z,19.77
2023-04-20T17:36:00.124Z,19.96
2023-04-20T17:38:31.069Z,18.97
2023-04-20T17:40:59.224Z,18.09
2023-04-20T17:43:27.351Z,17.84
2023-04-20T17:45:55.361Z,18.93
2023-04-20T17:48:23.165Z,19.49
2023-04-20T17:50:54.528Z,18.69
2023-04-20T17:53:23.361Z,17.87
2023-04-20T17:55:54.349Z,17.30
2023-04-20T17:58:22.265Z,16.88
2023-04-20T18:00:51.941Z,16.52
2023-04-20T18:03:21.420Z,16.67
2023-04-20T18:05:49.338Z,17.97
2023-04-20T18:08:17.801Z,19.06
2023-04-20T18:10:45.974Z,18.83
2023-04-20T18:13:13.905Z,17.86
2023-04-20T18:15:41.943Z,17.14
2023-04-20T18:18:10.483Z,16.63
2023-04-20T18:20:40.627Z,16.23
2023-04-20T18:23:08.577Z,16.29
2023-04-20T18:25:36.710Z,17.54
2023-04-20T18:28:04.635Z,18.27
2023-04-20T18:30:35.192Z,17.56
2023-04-20T18:33:03.138Z,16.79
2023-04-20T18:35:31.125Z,16.25
2023-04-20T18:38:02.638Z,15.84
2023-04-20T18:40:30.583Z,15.89
2023-04-20T18:42:58.387Z,17.14
2023-04-20T18:45:26.381Z,18.21
2023-04-20T18:47:54.264Z,17.83
2023-04-20T18:50:22.278Z,16.98
2023-04-20T18:52:50.299Z,16.34
2023-04-20T18:55:18.185Z,15.87
2023-04-20T18:57:45.976Z,15.94
2023-04-20T19:00:14.434Z,17.20
2023-04-20T19:02:45.969Z,18.34
2023-04-20T19:05:14.717Z,18.61
2023-04-20T19:07:42.587Z,17.62
2023-04-20T19:10:10.806Z,16.79
2023-04-20T19:12:38.701Z,16.21
2023-04-20T19:15:08.659Z,15.78
2023-04-20T19:17:36.680Z,16.19
2023-04-20T19:20:05.498Z,17.48
2023-04-20T19:22:33.435Z,18.03
2023-04-20T19:25:01.325Z,17.25
2023-04-20T19:27:30.496Z,16.45
2023-04-20T19:29:58.357Z,15.88
2023-04-20T19:32:26.567Z,15.46
2023-04-20T19:34:57.368Z,15.50
2023-04-20T19:37:25.681Z,16.75
2023-04-20T19:39:53.863Z,17.88
2023-04-20T19:42:22.859Z,17.75
2023-04-20T19:44:53.511Z,16.82
2023-04-20T19:47:23.846Z,16.13
2023-04-20T19:49:52.443Z,15.65
2023-04-20T19:52:20.573Z,15.29
2023-04-20T19:54:52.214Z,15.42
2023-04-20T19:57:20.238Z,16.70
2023-04-20T19:59:48.259Z,17.81
2023-04-20T20:02:18.437Z,17.63
2023-04-20T20:04:46.290Z,16.71
2023-04-20T20:07:14.159Z,16.01
2023-04-20T20:09:44.085Z,15.53
2023-04-20T20:12:12.514Z,15.55
2023-04-20T20:14:40.665Z,16.76
2023-04-20T20:17:08.470Z,17.85
2023-04-20T20:19:36.409Z,18.07
2023-04-20T20:22:04.166Z,17.13
2023-04-20T20:24:31.927Z,16.32
2023-04-20T20:26:59.685Z,15.75
2023-04-20T20:29:27.470Z,15.66
2023-04-20T20:31:55.356Z,16.84
2023-04-20T20:34:23.098Z,17.61
2023-04-20T20:36:51.350Z,16.92
2023-04-20T20:39:19.754Z,16.12
2023-04-20T20:41:51.182Z,15.55
2023-04-20T20:44:20.591Z,15.14
2023-04-20T20:46:48.851Z,14.80
2023-04-20T20:49:17.144Z,15.00
2023-04-20T20:51:45.003Z,16.32
2023-04-20T20:54:12.873Z,17.09
2023-04-20T20:56:40.786Z,16.42
2023-04-20T20:59:11.363Z,15.67
2023-04-20T21:01:42.282Z,15.14
2023-04-20T21:04:10.471Z,14.77
2023-04-20T21:06:38.444Z,14.90
2023-04-20T21:09:06.333Z,16.21
2023-04-20T21:11:34.150Z,17.01
2023-04-20T21:14:03.510Z,16.34
2023-04-20T21:16:31.387Z,15.57
2023-04-20T21:18:59.286Z,15.04
2023-04-20T21:21:27.552Z,14.65
2023-04-20T21:23:55.666Z,14.81
2023-04-20T21:26:23.585Z,16.16
2023-04-20T21:28:51.505Z,16.89
2023-04-20T21:31:19.594Z,16.13
2023-04-20T21:33:47.515Z,15.38
2023-04-20T21:36:15.440Z,14.86
2023-04-20T21:38:45.568Z,14.48
2023-04-20T21:41:13.364Z,14.18
2023-04-20T21:43:43.342Z,14.39
2023-04-20T21:46:15.869Z,15.80
2023-04-20T21:48:43.807Z,16.44
2023-04-20T21:51:18.269Z,15.67
2023-04-20T21:53:46.100Z,14.97
2023-04-20T21:56:14.971Z,14.51
2023-04-20T21:58:42.945Z,14.17
2023-04-20T22:01:11.179Z,13.90
2023-04-20T22:03:39.296Z,13.67
2023-04-20T22:06:07.499Z,13.92
2023-04-20T22:08:39.618Z,15.43
2023-04-20T22:11:07.975Z,16.23
2023-04-20T22:13:36.650Z,15.51
2023-04-20T22:16:05.032Z,14.82
2023-04-20T22:18:32.810Z,14.34
2023-04-20T22:21:00.636Z,14.01
2023-04-20T22:23:28.543Z,13.76
2023-04-20T22:25:56.426Z,13.55
2023-04-20T22:28:24.357Z,13.80
2023-04-20T22:30:52.334Z,15.25
2023-04-20T22:33:20.488Z,16.03
2023-04-20T22:35:48.377Z,15.34
2023-04-20T22:38:16.483Z,14.65
2023-04-20T22:40:44.347Z,14.21
2023-04-20T22:43:12.287Z,13.88
2023-04-20T22:45:40.689Z,13.64
2023-04-20T22:48:09.278Z,13.85
2023-04-20T22:50:37.273Z,15.28
2023-04-20T22:53:05.182Z,16.12
2023-04-20T22:55:33.028Z,15.45
2023-04-20T22:58:00.863Z,14.74
2023-04-20T23:00:28.748Z,14.27
2023-04-20T23:02:56.776Z,13.92
2023-04-20T23:05:25.115Z,13.66
2023-04-20T23:07:56.310Z,13.83
2023-04-20T23:10:28.635Z,15.27
2023-04-20T23:12:56.704Z,16.06
2023-04-20T23:15:24.641Z,15.34
2023-04-20T23:17:52.880Z,14.65
2023-04-20T23:20:20.885Z,14.16
2023-04-20T23:22:48.668Z,13.81
2023-04-20T23:25:16.560Z,13.53
2023-04-20T23:27:44.367Z,13.67
2023-04-20T23:30:12.887Z,15.07
2023-04-20T23:32:42.348Z,15.91
2023-04-20T23:35:11.629Z,15.21
2023-04-20T23:37:39.400Z,14.49
2023-04-20T23:40:10.075Z,13.97
2023-04-20T23:42:37.902Z,13.61
2023-04-20T23:45:06.682Z,13.33
2023-04-20T23:47:34.570Z,13.50
2023-04-20T23:50:02.354Z,14.91
2023-04-20T23:52:30.852Z,15.74
2023-04-20T23:54:58.725Z,15.05
2023-04-20T23:57:26.601Z,14.31
2023-04-20T23:59:54.736Z,13.79
